createdAt,value
2018-03-02T00:00:47.388Z,74.43
2018-03-02T00:03:15.995Z,75.13
2018-03-02T00:05:44.507Z,76.10
2018-03-02T00:08:13.068Z,79.33
2018-03-02T00:10:41.603Z,78.82
2018-03-02T00:13:10.103Z,80.12
2018-03-02T00:15:38.585Z,79.65
2018-03-02T00:18:07.110Z,82.37
2018-03-02T00:20:35.916Z,85.07
2018-03-02T00:23:04.448Z,91.85
2018-03-02T00:25:32.990Z,89.62
2018-03-02T00:28:01.474Z,95.75
2018-03-02T00:30:30.024Z,95.75
2018-03-02T00:32:58.503Z,96.13
2018-03-02T00:35:27.031Z,101.35
2018-03-02T00:37:55.503Z,96.73
2018-03-02T00:40:24.062Z,99.57
2018-03-02T00:42:52.542Z,97.85
2018-03-02T00:45:21.041Z,92.85
2018-03-02T00:47:49.557Z,91.93
2018-03-02T00:50:18.054Z,91.90
2018-03-02T00:52:46.586Z,94.43
2018-03-02T00:55:15.114Z,92.03
2018-03-02T00:57:43.703Z,93.70
2018-03-02T01:00:12.255Z,92.55
2018-03-02T01:02:40.826Z,93.22
2018-03-02T01:05:09.301Z,91.87
2018-03-02T01:07:37.782Z,89.80
2018-03-02T01:10:06.311Z,86.95
2018-03-02T01:12:34.835Z,86.95
2018-03-02T01:15:03.361Z,84.70
2018-03-02T01:17:31.878Z,80.53
2018-03-02T01:20:00.463Z,81.05
2018-03-02T01:22:28.990Z,81.55
2018-03-02T01:24:57.513Z,82.18
2018-03-02T01:27:25.990Z,76.90
2018-03-02T01:29:54.526Z,77.80
2018-03-02T01:32:23.009Z,77.00
2018-03-02T01:34:51.490Z,77.75
2018-03-02T01:37:20.057Z,78.82
2018-03-02T01:39:48.575Z,79.82
2018-03-02T01:42:17.195Z,87.80
2018-03-02T01:44:45.674Z,87.00
2018-03-02T01:47:14.208Z,85.70
2018-03-02T01:49:42.772Z,89.57
2018-03-02T01:52:11.298Z,88.87
2018-03-02T01:54:39.773Z,92.95
2018-03-02T01:57:08.251Z,90.97
2018-03-02T01:59:36.782Z,97.12
2018-03-02T02:02:05.318Z,100.68
2018-03-02T02:04:33.881Z,98.72
2018-03-02T02:07:02.361Z,102.82
2018-03-02T02:09:30.928Z,102.95
2018-03-02T02:11:59.470Z,101.68
2018-03-02T02:14:28.032Z,100.60
2018-03-02T02:16:56.526Z,98.20
2018-03-02T02:19:25.062Z,99.25
2018-03-02T02:21:53.603Z,99.85
2018-03-02T02:24:22.134Z,95.80
2018-03-02T02:26:50.663Z,95.40
2018-03-02T02:29:19.202Z,97.10
2018-03-02T02:31:47.710Z,99.57
2018-03-02T02:34:16.232Z,96.95
2018-03-02T02:36:44.755Z,97.40
2018-03-02T02:39:13.251Z,92.90
2018-03-02T02:41:41.819Z,92.20
2018-03-02T02:44:10.363Z,88.15
2018-03-02T02:46:38.863Z,87.72
2018-03-02T02:49:07.391Z,86.18
2018-03-02T02:51:35.876Z,86.90
2018-03-02T02:54:04.408Z,85.32
2018-03-02T02:56:32.954Z,89.15
2018-03-02T02:59:01.507Z,88.82
2018-03-02T03:01:29.991Z,98.22
2018-03-02T03:03:58.550Z,97.22
2018-03-02T03:06:27.088Z,92.70
2018-03-02T03:08:55.622Z,98.12
2018-03-02T03:11:24.200Z,106.75
2018-03-02T03:13:52.730Z,102.22
2018-03-02T03:16:21.258Z,99.57
2018-03-02T03:18:49.791Z,97.60
2018-03-02T03:21:18.291Z,96.18
2018-03-02T03:23:46.828Z,93.00
2018-03-02T03:26:15.314Z,95.53
2018-03-02T03:28:43.836Z,90.80
2018-03-02T03:31:12.367Z,89.03
2018-03-02T03:33:40.932Z,79.87
2018-03-02T03:36:09.447Z,69.43
2018-03-02T03:38:37.971Z,75.10
2018-03-02T03:41:06.469Z,64.12
2018-03-02T03:43:35.051Z,61.35
2018-03-02T03:46:03.570Z,66.80
2018-03-02T03:48:32.094Z,66.57
2018-03-02T03:51:00.622Z,67.68
2018-03-02T03:53:29.120Z,64.85
2018-03-02T03:55:57.647Z,65.47
2018-03-02T03:58:26.217Z,63.05
2018-03-02T04:00:54.734Z,60.47
2018-03-02T04:03:23.242Z,62.78
2018-03-02T04:05:51.802Z,64.43
2018-03-02T04:08:20.278Z,63.70
2018-03-02T04:10:48.787Z,59.55
2018-03-02T04:13:17.301Z,59.60
2018-03-02T04:15:45.782Z,59.85
2018-03-02T04:18:14.637Z,60.78
2018-03-02T04:20:43.123Z,59.58
2018-03-02T04:23:11.687Z,61.10
2018-03-02T04:25:40.219Z,63.13
2018-03-02T04:28:08.751Z,63.42
2018-03-02T04:30:38.002Z,63.10
2018-03-02T04:33:06.518Z,62.55
2018-03-02T04:35:35.034Z,57.35
2018-03-02T04:38:03.528Z,55.95
2018-03-02T04:40:32.046Z,54.60
2018-03-02T04:43:00.570Z,54.83
2018-03-02T04:45:29.108Z,56.92
2018-03-02T04:47:57.622Z,59.30
2018-03-02T04:50:26.148Z,57.78
2018-03-02T04:52:54.684Z,56.95
2018-03-02T04:55:23.181Z,57.55
2018-03-02T04:57:51.690Z,58.67
2018-03-02T05:00:20.240Z,56.90
2018-03-02T05:02:48.763Z,60.90
2018-03-02T05:05:17.282Z,53.53
2018-03-02T05:07:45.773Z,50.85
2018-03-02T05:10:14.284Z,49.03
2018-03-02T05:12:42.751Z,48.85
2018-03-02T05:15:11.273Z,47.25
2018-03-02T05:17:39.794Z,74.40
2018-03-02T05:20:08.338Z,86.77
2018-03-02T05:22:36.862Z,95.25
2018-03-02T05:25:05.381Z,90.30
2018-03-02T05:27:33.939Z,95.57
2018-03-02T05:30:02.503Z,102.80
2018-03-02T05:32:31.039Z,89.30
2018-03-02T05:34:59.520Z,92.40
2018-03-02T05:37:28.072Z,93.20
2018-03-02T05:39:56.758Z,95.03
2018-03-02T05:42:25.235Z,93.40
2018-03-02T05:44:53.723Z,93.03
2018-03-02T05:47:22.346Z,93.97
2018-03-02T05:49:50.916Z,96.10
2018-03-02T05:52:19.394Z,95.50
2018-03-02T05:54:47.886Z,97.80
2018-03-02T05:57:16.443Z,96.77
2018-03-02T05:59:45.023Z,93.60
2018-03-02T06:02:13.674Z,99.03
2018-03-02T06:04:42.179Z,99.30
2018-03-02T06:07:10.686Z,103.23
2018-03-02T06:09:39.167Z,100.17
2018-03-02T06:12:07.684Z,100.83
2018-03-02T06:14:36.238Z,99.40
2018-03-02T06:17:04.778Z,100.43
2018-03-02T06:19:33.296Z,93.40
2018-03-02T06:22:01.818Z,96.67
2018-03-02T06:24:30.338Z,94.57
2018-03-02T06:26:58.877Z,91.20
2018-03-02T06:29:27.357Z,90.33
2018-03-02T06:31:55.887Z,97.57
2018-03-02T06:34:24.458Z,106.30
2018-03-02T06:36:52.934Z,56.17
2018-03-02T06:39:21.482Z,40.50
2018-03-02T06:41:50.062Z,32.43
2018-03-02T06:44:18.582Z,36.33
2018-03-02T06:46:47.084Z,36.57
2018-03-02T06:49:15.726Z,101.53
2018-03-02T06:51:44.227Z,92.33
2018-03-02T06:54:12.782Z,44.13
2018-03-02T06:56:41.253Z,29.67
2018-03-02T06:59:09.751Z,29.40
2018-03-02T07:01:38.258Z,73.90
2018-03-02T07:04:06.805Z,42.60
2018-03-02T07:06:35.392Z,66.87
2018-03-02T07:09:04.005Z,100.07
2018-03-02T07:11:32.572Z,108.27
2018-03-02T07:14:01.085Z,100.47
2018-03-02T07:16:29.610Z,96.87
2018-03-02T07:18:58.110Z,93.20
2018-03-02T07:21:26.629Z,103.23
2018-03-02T07:23:55.267Z,100.83
2018-03-02T07:26:23.797Z,93.60
2018-03-02T07:28:52.333Z,98.10
2018-03-02T07:31:20.932Z,96.87
2018-03-02T07:33:49.409Z,90.03
2018-03-02T07:36:18.120Z,93.43
2018-03-02T07:38:46.592Z,92.13
2018-03-02T07:41:15.191Z,87.70
2018-03-02T07:43:43.663Z,88.73
2018-03-02T07:46:12.158Z,80.87
2018-03-02T07:48:40.661Z,85.30
2018-03-02T07:51:09.192Z,91.73
2018-03-02T07:53:37.668Z,87.03
2018-03-02T07:56:06.161Z,84.97
2018-03-02T07:58:34.715Z,83.63
2018-03-02T08:01:03.189Z,88.63
2018-03-02T08:03:31.743Z,80.63
2018-03-02T08:06:00.283Z,52.77
2018-03-02T08:08:28.878Z,39.00
2018-03-02T08:10:57.384Z,37.20
2018-03-02T08:13:25.912Z,38.87
2018-03-02T08:15:54.429Z,37.87
2018-03-02T08:18:22.926Z,38.67
2018-03-02T08:20:51.458Z,36.73
2018-03-02T08:23:19.994Z,37.87
2018-03-02T08:25:48.538Z,36.20
2018-03-02T08:28:17.048Z,36.23
2018-03-02T08:30:45.541Z,38.90
2018-03-02T08:33:14.059Z,38.70
2018-03-02T08:35:42.582Z,38.50
2018-03-02T08:38:11.166Z,39.17
2018-03-02T08:40:39.686Z,35.97
2018-03-02T08:43:08.225Z,35.43
2018-03-02T08:45:36.728Z,35.63
2018-03-02T08:48:05.292Z,33.53
2018-03-02T08:50:33.841Z,36.63
2018-03-02T08:53:02.370Z,36.50
2018-03-02T08:55:30.887Z,34.53
2018-03-02T08:57:59.389Z,37.17
2018-03-02T09:00:27.916Z,38.47
2018-03-02T09:02:56.472Z,39.30
2018-03-02T09:05:24.993Z,36.30
2018-03-02T09:07:53.518Z,36.50
2018-03-02T09:10:22.022Z,37.03
2018-03-02T09:12:50.555Z,38.77
2018-03-02T09:15:19.059Z,39.97
2018-03-02T09:17:47.565Z,38.33
2018-03-02T09:20:16.078Z,40.17
2018-03-02T09:22:44.614Z,40.80
2018-03-02T09:25:13.109Z,42.03
2018-03-02T09:27:41.575Z,44.10
2018-03-02T09:30:10.119Z,42.37
2018-03-02T09:32:38.650Z,42.73
2018-03-02T09:35:07.187Z,44.50
2018-03-02T09:37:35.664Z,43.03
2018-03-02T09:40:04.227Z,40.20
2018-03-02T09:42:32.768Z,39.97
2018-03-02T09:45:01.256Z,41.43
2018-03-02T09:47:29.835Z,41.03
2018-03-02T09:49:58.306Z,43.17
2018-03-02T09:52:26.783Z,41.07
2018-03-02T09:54:55.291Z,41.87
2018-03-02T09:57:23.799Z,40.57
2018-03-02T09:59:52.309Z,39.20
2018-03-02T10:02:20.850Z,34.17
2018-03-02T10:04:49.345Z,39.03
2018-03-02T10:07:17.887Z,39.43
2018-03-02T10:09:46.356Z,37.67
2018-03-02T10:12:14.851Z,37.67
2018-03-02T10:14:43.325Z,37.77
2018-03-02T10:17:11.833Z,36.90
2018-03-02T10:19:40.355Z,39.83
2018-03-02T10:22:08.875Z,40.63
2018-03-02T10:24:37.359Z,43.57
2018-03-02T10:27:05.831Z,31.27
2018-03-02T10:29:34.360Z,31.10
2018-03-02T10:32:02.866Z,30.97
2018-03-02T10:34:31.414Z,28.93
2018-03-02T10:36:59.914Z,27.33
2018-03-02T10:39:28.398Z,27.93
2018-03-02T10:41:56.938Z,26.57
2018-03-02T10:44:25.466Z,28.73
2018-03-02T10:46:53.926Z,28.83
2018-03-02T10:49:22.383Z,29.30
2018-03-02T10:51:51.006Z,26.30
2018-03-02T10:54:19.616Z,28.83
2018-03-02T10:56:48.093Z,28.87
2018-03-02T10:59:16.638Z,30.20
2018-03-02T11:01:50.638Z,29.73
2018-03-02T11:04:19.115Z,30.60
2018-03-02T11:06:47.650Z,30.03
2018-03-02T11:09:16.178Z,31.17
2018-03-02T11:11:44.691Z,30.20
2018-03-02T11:14:13.319Z,31.20
2018-03-02T11:16:41.767Z,27.93
2018-03-02T11:19:10.281Z,28.53
2018-03-02T11:21:38.746Z,28.37
2018-03-02T11:24:07.246Z,28.77
2018-03-02T11:26:35.733Z,28.77
2018-03-02T11:29:04.244Z,30.73
2018-03-02T11:31:32.785Z,32.40
2018-03-02T11:34:01.243Z,33.57
2018-03-02T11:36:29.773Z,33.97
2018-03-02T11:38:58.284Z,33.33
2018-03-02T11:41:26.795Z,35.63
2018-03-02T11:43:55.306Z,33.43
2018-03-02T11:46:23.809Z,33.57
2018-03-02T11:48:52.341Z,35.00
2018-03-02T11:51:20.844Z,37.47
2018-03-02T11:53:49.382Z,36.07
2018-03-02T11:56:17.886Z,31.57
2018-03-02T11:58:46.355Z,32.00
2018-03-02T12:01:14.888Z,34.23
2018-03-02T12:03:43.431Z,33.60
2018-03-02T12:06:11.955Z,35.07
2018-03-02T12:08:40.503Z,32.97
2018-03-02T12:11:09.032Z,33.20
2018-03-02T12:13:37.572Z,34.97
2018-03-02T12:16:06.058Z,34.57
2018-03-02T12:18:34.504Z,34.53
2018-03-02T12:21:03.000Z,32.97
2018-03-02T12:23:31.545Z,35.30
2018-03-02T12:26:00.024Z,35.93
2018-03-02T12:28:28.593Z,35.30
2018-03-02T12:30:57.104Z,36.93
2018-03-02T12:35:48.826Z,34.37
2018-03-02T12:38:17.307Z,33.93
2018-03-02T12:40:45.902Z,33.87
2018-03-02T12:43:14.534Z,33.13
2018-03-02T12:45:42.999Z,34.80
2018-03-02T12:48:11.455Z,34.33
2018-03-02T12:50:40.131Z,35.27
2018-03-02T12:53:08.610Z,36.17
2018-03-02T12:55:37.102Z,37.33
2018-03-02T12:58:05.561Z,37.97
2018-03-02T13:00:34.105Z,38.27
2018-03-02T13:03:02.672Z,37.30
2018-03-02T13:05:31.146Z,37.47
2018-03-02T13:07:59.711Z,36.27
2018-03-02T13:10:28.214Z,37.13
2018-03-02T13:12:56.730Z,38.27
2018-03-02T13:15:25.199Z,36.83
2018-03-02T13:17:53.697Z,38.13
2018-03-02T13:20:22.234Z,37.33
2018-03-02T13:22:50.742Z,37.03
2018-03-02T13:25:19.275Z,37.67
2018-03-02T13:27:59.426Z,34.23
2018-03-02T13:30:27.917Z,35.90
2018-03-02T13:33:07.998Z,37.07
2018-03-02T13:35:36.577Z,34.60
2018-03-02T13:38:05.078Z,33.20
2018-03-02T13:40:45.242Z,34.47
2018-03-02T13:43:13.699Z,34.07
2018-03-02T13:45:42.228Z,34.33
2018-03-02T13:51:10.414Z,36.00
2018-03-02T13:53:39.034Z,36.07
2018-03-02T13:56:07.630Z,34.87
2018-03-02T13:58:36.078Z,35.13
2018-03-02T14:01:04.697Z,37.03
2018-03-02T14:03:44.799Z,35.73
2018-03-02T14:06:13.289Z,35.40
2018-03-02T14:08:41.801Z,35.73
2018-03-02T14:11:10.302Z,36.17
2018-03-02T14:13:38.802Z,38.23
2018-03-02T14:16:07.370Z,38.70
2018-03-02T14:18:35.858Z,37.57
2018-03-02T14:21:04.389Z,35.07
2018-03-02T14:23:32.923Z,36.90
2018-03-02T14:26:01.452Z,35.47
2018-03-02T14:28:29.977Z,37.00
2018-03-02T14:30:58.519Z,35.67
2018-03-02T14:33:27.044Z,37.60
2018-03-02T14:35:55.594Z,35.43
2018-03-02T14:38:24.056Z,35.40
2018-03-02T14:40:52.598Z,41.63
2018-03-02T14:43:21.130Z,35.33
2018-03-02T14:45:49.730Z,34.30
2018-03-02T14:48:18.252Z,38.07
2018-03-02T14:50:46.722Z,37.23
2018-03-02T14:53:15.267Z,37.00
2018-03-02T14:55:43.750Z,36.23
2018-03-02T14:58:12.259Z,33.10
2018-03-02T15:00:40.798Z,33.70
2018-03-02T15:03:09.360Z,37.43
2018-03-02T15:05:38.615Z,36.23
2018-03-02T15:08:07.116Z,35.40
2018-03-02T15:10:35.618Z,34.00
2018-03-02T15:13:04.102Z,34.87
2018-03-02T15:15:32.610Z,36.47
2018-03-02T15:18:01.094Z,38.20
2018-03-02T15:20:29.631Z,34.47
2018-03-02T15:22:58.155Z,35.53
2018-03-02T15:25:26.674Z,35.83
2018-03-02T15:27:55.150Z,36.47
2018-03-02T15:30:23.663Z,36.20
2018-03-02T15:32:52.246Z,36.67
2018-03-02T15:35:20.702Z,38.63
2018-03-02T15:37:49.179Z,40.10
2018-03-02T15:40:17.685Z,34.50
2018-03-02T15:42:46.224Z,35.07
2018-03-02T15:45:14.722Z,35.97
2018-03-02T15:47:43.303Z,42.33
2018-03-02T15:50:11.839Z,37.43
2018-03-02T15:52:40.326Z,36.40
2018-03-02T15:55:08.828Z,36.93
2018-03-02T15:57:37.315Z,39.27
2018-03-02T16:00:05.817Z,37.90
2018-03-02T16:02:34.350Z,39.53
2018-03-02T16:05:02.882Z,39.43
2018-03-02T16:07:31.385Z,37.87
2018-03-02T16:09:59.862Z,36.13
2018-03-02T16:12:28.321Z,35.50
2018-03-02T16:14:56.886Z,35.97
2018-03-02T16:17:25.358Z,36.27
2018-03-02T16:19:53.869Z,43.57
2018-03-02T16:22:22.348Z,39.30
2018-03-02T16:24:50.854Z,44.10
2018-03-02T16:27:19.343Z,45.37
2018-03-02T16:29:47.830Z,39.17
2018-03-02T16:32:16.290Z,41.80
2018-03-02T16:34:44.950Z,42.93
2018-03-02T16:37:13.422Z,38.43
2018-03-02T16:39:41.922Z,38.23
2018-03-02T16:42:10.399Z,41.00
2018-03-02T16:44:38.908Z,40.50
2018-03-02T16:47:07.402Z,38.20
2018-03-02T16:49:35.898Z,41.23
2018-03-02T16:52:04.459Z,40.77
2018-03-02T16:54:32.919Z,43.53
2018-03-02T16:57:01.422Z,51.43
2018-03-02T16:59:29.892Z,47.00
2018-03-02T17:01:58.422Z,44.30
2018-03-02T17:04:26.883Z,41.37
2018-03-02T17:06:55.426Z,42.77
2018-03-02T17:09:23.926Z,45.93
2018-03-02T17:11:52.438Z,46.53
2018-03-02T17:14:20.926Z,45.63
2018-03-02T17:16:49.431Z,51.80
2018-03-02T17:19:17.927Z,53.50
2018-03-02T17:21:46.386Z,46.17
2018-03-02T17:24:14.882Z,54.20
2018-03-02T17:26:43.378Z,47.87
2018-03-02T17:29:11.875Z,45.47
2018-03-02T17:31:40.370Z,42.47
2018-03-02T17:34:08.910Z,43.57
2018-03-02T17:36:37.397Z,45.43
2018-03-02T17:39:05.859Z,47.57
2018-03-02T17:41:34.318Z,45.87
2018-03-02T17:44:02.800Z,47.60
2018-03-02T17:46:31.290Z,46.33
2018-03-02T17:48:59.767Z,46.17
2018-03-02T17:51:28.280Z,46.67
2018-03-02T17:53:56.742Z,46.87
2018-03-02T17:56:25.280Z,45.97
2018-03-02T17:58:53.814Z,44.97
2018-03-02T18:01:22.381Z,43.80
2018-03-02T18:03:50.846Z,44.63
2018-03-02T18:06:19.550Z,45.17
2018-03-02T18:08:48.093Z,46.13
2018-03-02T18:11:16.601Z,48.43
2018-03-02T18:13:45.079Z,49.80
2018-03-02T18:16:13.534Z,51.87
2018-03-02T18:18:42.029Z,50.27
2018-03-02T18:21:10.486Z,47.47
2018-03-02T18:23:38.986Z,46.20
2018-03-02T18:26:07.474Z,46.47
2018-03-02T18:28:36.032Z,46.20
2018-03-02T18:31:04.530Z,46.63
2018-03-02T18:33:33.022Z,47.47
2018-03-02T18:36:01.482Z,47.70
2018-03-02T18:38:30.032Z,46.03
2018-03-02T18:40:58.514Z,48.00
2018-03-02T18:43:26.974Z,48.57
2018-03-02T18:45:55.469Z,49.07
2018-03-02T18:48:23.977Z,46.70
2018-03-02T18:50:52.451Z,43.40
2018-03-02T18:53:20.914Z,45.97
2018-03-02T18:55:49.416Z,46.63
2018-03-02T18:58:17.884Z,47.83
2018-03-02T19:00:46.386Z,47.93
2018-03-02T19:03:14.857Z,48.40
2018-03-02T19:05:43.318Z,47.43
2018-03-02T19:08:11.821Z,50.40
2018-03-02T19:10:40.294Z,52.53
2018-03-02T19:13:08.814Z,52.23
2018-03-02T19:15:37.802Z,56.10
2018-03-02T19:18:06.308Z,55.83
2018-03-02T19:20:34.850Z,52.30
2018-03-02T19:23:03.414Z,53.67
2018-03-02T19:25:31.874Z,54.17
2018-03-02T19:28:00.320Z,57.03
2018-03-02T19:30:28.860Z,54.10
2018-03-02T19:32:57.363Z,53.73
2018-03-02T19:35:25.826Z,52.20
2018-03-02T19:37:54.338Z,48.30
2018-03-02T19:40:22.819Z,46.17
2018-03-02T19:42:51.327Z,47.73
2018-03-02T19:45:19.884Z,47.93
2018-03-02T19:47:48.360Z,48.00
2018-03-02T19:50:16.866Z,49.77
2018-03-02T19:52:45.335Z,53.07
2018-03-02T19:55:13.826Z,48.00
2018-03-02T19:57:42.358Z,50.67
2018-03-02T20:00:10.838Z,50.43
2018-03-02T20:02:39.315Z,50.80
2018-03-02T20:05:07.822Z,49.47
2018-03-02T20:07:36.330Z,46.70
2018-03-02T20:10:04.809Z,42.87
2018-03-02T20:12:33.291Z,43.43
2018-03-02T20:15:01.795Z,44.77
2018-03-02T20:17:30.299Z,45.97
2018-03-02T20:19:58.765Z,56.03
2018-03-02T20:22:27.306Z,59.10
2018-03-02T20:24:55.786Z,60.13
2018-03-02T20:27:24.246Z,65.80
2018-03-02T20:29:52.782Z,66.53
2018-03-02T20:32:21.267Z,67.97
2018-03-02T20:34:49.784Z,73.53
2018-03-02T20:37:18.255Z,71.80
2018-03-02T20:39:46.801Z,75.10
2018-03-02T20:42:15.431Z,84.10
2018-03-02T20:44:43.934Z,84.03
2018-03-02T20:47:12.398Z,96.47
2018-03-02T20:49:40.950Z,85.43
2018-03-02T20:52:09.465Z,88.37
2018-03-02T20:54:38.005Z,87.50
2018-03-02T20:57:06.546Z,91.00
2018-03-02T20:59:35.115Z,91.93
2018-03-02T21:02:03.588Z,90.30
2018-03-02T21:04:32.157Z,87.47
2018-03-02T21:07:00.635Z,89.27
2018-03-02T21:09:29.104Z,91.03
2018-03-02T21:11:57.606Z,86.73
2018-03-02T21:14:26.113Z,82.90
2018-03-02T21:16:54.582Z,83.83
2018-03-02T21:19:23.090Z,85.50
2018-03-02T21:21:51.595Z,83.10
2018-03-02T21:24:20.056Z,86.07
2018-03-02T21:26:48.559Z,85.27
2018-03-02T21:29:17.023Z,85.93
2018-03-02T21:31:45.527Z,85.70
2018-03-02T21:34:18.975Z,88.23
2018-03-02T21:36:42.552Z,87.47
2018-03-02T21:39:12.138Z,86.27
2018-03-02T21:41:39.534Z,87.00
2018-03-02T21:44:08.049Z,82.57
2018-03-02T21:46:36.506Z,86.03
2018-03-02T21:49:04.995Z,86.07
2018-03-02T21:51:33.501Z,88.40
2018-03-02T21:54:01.962Z,90.60
2018-03-02T21:56:30.484Z,89.97
2018-03-02T21:58:58.987Z,86.53
2018-03-02T22:01:27.450Z,91.40
2018-03-02T22:03:56.014Z,86.93
2018-03-02T22:06:24.482Z,88.43
2018-03-02T22:08:52.945Z,84.87
2018-03-02T22:11:21.467Z,83.80
2018-03-02T22:13:49.976Z,85.93
2018-03-02T22:16:18.501Z,88.97
2018-03-02T22:18:46.970Z,89.80
2018-03-02T22:21:15.479Z,87.70
2018-03-02T22:23:43.947Z,90.37
2018-03-02T22:26:12.446Z,91.37
2018-03-02T22:28:40.982Z,87.90
2018-03-02T22:31:09.489Z,87.97
2018-03-02T22:33:38.003Z,87.40
2018-03-02T22:36:06.510Z,90.00
2018-03-02T22:38:34.989Z,85.43
2018-03-02T22:41:03.462Z,82.90
2018-03-02T22:43:31.966Z,82.10
2018-03-02T22:46:00.445Z,82.40
2018-03-02T22:48:28.954Z,79.37
2018-03-02T22:50:57.458Z,81.80
2018-03-02T22:53:25.921Z,81.70
2018-03-02T22:55:54.430Z,76.70
2018-03-02T22:58:22.897Z,72.27
2018-03-02T23:00:51.407Z,69.83
2018-03-02T23:03:19.870Z,65.70
2018-03-02T23:05:48.361Z,67.93
2018-03-02T23:08:16.851Z,68.00
2018-03-02T23:10:45.325Z,67.37
2018-03-02T23:13:13.819Z,66.77
2018-03-02T23:15:42.300Z,68.00
2018-03-02T23:18:10.818Z,70.77
2018-03-02T23:20:39.302Z,68.37
2018-03-02T23:23:07.802Z,67.63
2018-03-02T23:25:36.298Z,67.83
2018-03-02T23:28:04.804Z,66.57
2018-03-02T23:30:33.290Z,72.10
2018-03-02T23:33:01.814Z,71.17
2018-03-02T23:35:30.261Z,71.87
2018-03-02T23:37:59.709Z,71.87
2018-03-02T23:40:28.187Z,72.20
2018-03-02T23:42:56.683Z,74.23
2018-03-02T23:45:25.145Z,68.73
2018-03-02T23:47:53.633Z,69.33
2018-03-02T23:50:22.098Z,71.20
2018-03-02T23:52:50.612Z,72.77
2018-03-02T23:55:19.103Z,71.27
2018-03-02T23:57:47.635Z,73.23
